Time;durP1;ratioP1;P1;durP2;ratioP2;P2;SDS_P1;SDS_P2;PMS_P1;PMS_P2;Temp;Humidity;BMP_temperature;BMP_pressure;BME280_temperature;BME280_humidity;BME280_pressure;Samples;Min_cycle;Max_cycle;Signal;HPM_P1;HPM_P2
2023/07/06 00:03:28;;;;;;;5.53;4.97;;;13.30;99.90;;;;;;2610179;54;20122;-73
2023/07/06 00:09:16;;;;;;;5.03;4.63;;;13.20;99.90;;;;;;2609440;54;20835;-72
2023/07/06 00:15:05;;;;;;;7.10;5.80;;;13.20;99.90;;;;;;2608843;54;20135;-73
2023/07/06 00:20:53;;;;;;;7.10;5.13;;;13.10;99.90;;;;;;2610723;54;20427;-73
2023/07/06 00:26:41;;;;;;;11.00;5.73;;;13.00;99.90;;;;;;2610780;54;20966;-73
2023/07/06 00:29:38;;;;;;;8.13;5.20;;;13.10;99.90;;;;;;2609823;47;20431;-72
2023/07/06 00:32:15;;;;;;;6.03;5.00;;;13.00;99.90;;;;;;2609520;47;20431;-72
2023/07/06 00:38:03;;;;;;;6.40;4.80;;;13.00;99.90;;;;;;2610763;54;20467;-72
2023/07/06 00:43:54;;;;;;;8.77;5.70;;;13.00;99.90;;;;;;2610672;54;20140;-73
2023/07/06 00:49:42;;;;;;;9.90;5.77;;;13.10;99.90;;;;;;2613285;54;20424;-73
2023/07/06 00:55:33;;;;;;;6.13;5.47;;;12.90;99.90;;;;;;2614287;39;20859;-73
2023/07/06 01:01:23;;;;;;;8.90;4.67;;;12.80;99.90;;;;;;2609530;54;20963;-70
2023/07/06 01:13:25;;;;;;;6.70;4.80;;;12.80;99.90;;;;;;2610054;54;20423;-70
2023/07/06 01:42:07;;;;;;;6.23;5.57;;;12.60;99.90;;;;;;2611048;54;20409;-70
2023/07/06 01:48:01;;;;;;;9.73;5.60;;;12.50;99.90;;;;;;2609751;54;20424;-69
2023/07/06 01:53:56;;;;;;;6.13;5.53;;;12.30;99.90;;;;;;2606371;54;20378;-70
2023/07/06 01:59:46;;;;;;;8.60;5.37;;;12.40;99.90;;;;;;2608992;54;21710;-69
2023/07/06 02:05:37;;;;;;;9.73;5.27;;;12.30;99.90;;;;;;2609336;54;20988;-70
2023/07/06 02:11:25;;;;;;;9.57;5.73;;;12.30;99.90;;;;;;2610156;54;20523;-70
2023/07/06 02:17:13;;;;;;;11.27;6.67;;;12.20;99.90;;;;;;2611164;54;20134;-70
2023/07/06 02:23:01;;;;;;;7.70;5.20;;;12.20;99.90;;;;;;2610394;54;21052;-70
2023/07/06 02:28:49;;;;;;;8.33;6.60;;;12.00;99.90;;;;;;2611930;54;20154;-70
2023/07/06 02:34:37;;;;;;;16.60;6.40;;;12.10;99.90;;;;;;2610602;54;20210;-70
2023/07/06 02:40:25;;;;;;;9.03;6.67;;;12.20;99.90;;;;;;2611213;54;20130;-69
2023/07/06 02:46:19;;;;;;;9.70;6.27;;;12.40;99.90;;;;;;2612069;54;20162;-70
2023/07/06 02:52:07;;;;;;;13.40;8.33;;;12.30;99.90;;;;;;2615100;54;20929;-72
2023/07/06 02:57:55;;;;;;;8.03;7.23;;;12.20;99.90;;;;;;2611772;54;20126;-72
2023/07/06 03:03:43;;;;;;;13.23;8.70;;;12.30;99.90;;;;;;2611262;39;20955;-70
2023/07/06 03:09:31;;;;;;;8.03;7.20;;;12.10;99.90;;;;;;2612000;54;20162;-70
2023/07/06 03:15:18;;;;;;;11.80;7.83;;;12.20;99.90;;;;;;2611466;54;20129;-70
2023/07/06 03:21:06;;;;;;;9.47;7.13;;;12.30;99.90;;;;;;2609679;54;20157;-69
2023/07/06 03:26:54;;;;;;;8.23;5.77;;;12.10;99.90;;;;;;2611341;54;20219;-69
2023/07/06 03:32:42;;;;;;;12.70;6.63;;;12.40;99.90;;;;;;2611081;46;20270;-70
2023/07/06 03:38:30;;;;;;;13.20;6.47;;;12.30;99.90;;;;;;2611625;54;20153;-69
2023/07/06 03:44:21;;;;;;;8.40;6.80;;;12.20;99.90;;;;;;2611742;54;20859;-70
2023/07/06 03:50:11;;;;;;;8.90;5.70;;;12.10;99.90;;;;;;2612907;54;20434;-70
2023/07/06 03:55:59;;;;;;;12.33;6.97;;;12.20;99.90;;;;;;2609353;54;20367;-70
2023/07/06 04:01:48;;;;;;;6.73;6.13;;;12.10;99.90;;;;;;2608903;54;20155;-69
2023/07/06 04:07:37;;;;;;;6.37;5.63;;;12.30;99.90;;;;;;2611094;54;20520;-70
2023/07/06 04:13:25;;;;;;;9.33;5.83;;;12.10;99.90;;;;;;2611473;54;20387;-70
2023/07/06 04:19:13;;;;;;;11.93;5.77;;;12.40;99.90;;;;;;2608892;54;20134;-70
2023/07/06 04:25:00;;;;;;;8.80;6.10;;;12.50;99.90;;;;;;2610022;54;20138;-70
2023/07/06 04:30:50;;;;;;;7.73;4.13;;;12.60;99.90;;;;;;2610646;54;20251;-70
2023/07/06 04:33:33;;;;;;;10.03;5.13;;;12.70;99.90;;;;;;2609417;54;20550;-71
2023/07/06 04:36:02;;;;;;;8.50;5.20;;;12.90;99.90;;;;;;2610277;47;20444;-68
2023/07/06 04:41:49;;;;;;;6.23;5.60;;;13.10;99.90;;;;;;2610313;54;20395;-71
2023/07/06 04:47:39;;;;;;;8.33;6.00;;;13.30;99.90;;;;;;2612121;54;20194;-72
2023/07/06 04:53:28;;;;;;;9.70;4.97;;;13.50;99.90;;;;;;2612766;54;20946;-70
2023/07/06 04:59:16;;;;;;;7.80;6.40;;;13.90;99.90;;;;;;2609013;54;22728;-70
2023/07/06 05:05:05;;;;;;;6.30;4.73;;;14.20;99.90;;;;;;2610232;54;20447;-70
2023/07/06 05:10:53;;;;;;;7.23;5.07;;;14.60;99.90;;;;;;2610435;46;20430;-70
2023/07/06 05:16:41;;;;;;;7.80;5.17;;;15.00;99.90;;;;;;2609964;39;20783;-71
2023/07/06 05:22:29;;;;;;;6.83;4.67;;;14.80;99.90;;;;;;2611766;54;20154;-76
2023/07/06 05:28:19;;;;;;;9.33;6.47;;;15.70;99.90;;;;;;2609424;54;20167;-69
2023/07/06 05:38:10;;;;;;;5.57;4.10;;;15.80;99.90;;;;;;2613779;54;20419;-68
2023/07/06 05:43:58;;;;;;;6.03;4.77;;;16.00;99.90;;;;;;2612818;54;20399;-70
2023/07/06 05:49:46;;;;;;;9.23;4.50;;;16.30;99.90;;;;;;2613913;54;20163;-69
2023/07/06 05:55:33;;;;;;;5.83;5.10;;;16.30;99.90;;;;;;2613661;54;20162;-69
2023/07/06 06:01:25;;;;;;;8.60;5.80;;;16.40;99.90;;;;;;2612930;54;20151;-69
2023/07/06 06:07:14;;;;;;;5.67;5.17;;;16.70;99.90;;;;;;2606976;31;20846;-70
2023/07/06 06:13:02;;;;;;;5.73;5.23;;;16.90;99.90;;;;;;2613406;54;20917;-69
2023/07/06 06:18:50;;;;;;;13.73;6.10;;;16.30;99.90;;;;;;2613211;54;20147;-70
2023/07/06 06:24:38;;;;;;;9.40;6.33;;;16.80;99.90;;;;;;2611777;54;20419;-69
2023/07/06 06:30:25;;;;;;;13.27;6.60;;;16.40;99.90;;;;;;2613561;54;20250;-69
2023/07/06 06:33:29;;;;;;;9.37;6.97;;;16.90;99.90;;;;;;2611016;54;20423;-69
2023/07/06 06:35:56;;;;;;;6.97;6.37;;;17.50;99.90;;;;;;2611838;47;20201;-69
2023/07/06 06:41:44;;;;;;;12.90;5.90;;;17.10;99.90;;;;;;2612236;46;21035;-69
2023/07/06 06:47:32;;;;;;;12.93;6.43;;;17.20;99.90;;;;;;2611702;39;21217;-69
2023/07/06 06:53:19;;;;;;;13.33;6.37;;;17.50;99.90;;;;;;2612614;54;20484;-69
2023/07/06 06:59:11;;;;;;;7.93;7.03;;;17.30;99.90;;;;;;2612363;54;20130;-69
2023/07/06 07:05:00;;;;;;;10.40;7.63;;;18.50;99.90;;;;;;2614346;54;20440;-69
2023/07/06 07:10:53;;;;;;;9.07;8.00;;;18.40;99.90;;;;;;2613775;39;20784;-69
2023/07/06 07:16:40;;;;;;;10.53;9.73;;;18.50;99.90;;;;;;2614187;54;20948;-70
2023/07/06 07:22:44;;;;;;;9.07;8.20;;;19.60;99.90;;;;;;2612524;54;20194;-69
2023/07/06 07:28:32;;;;;;;12.73;9.50;;;19.40;99.90;;;;;;2610557;54;20898;-69
2023/07/06 07:38:03;;;;;;;10.63;9.00;;;19.40;99.90;;;;;;2613867;54;20391;-69
2023/07/06 07:43:51;;;;;;;9.00;8.30;;;19.60;99.90;;;;;;2613021;54;20375;-69
2023/07/06 07:49:39;;;;;;;10.40;9.33;;;20.10;99.90;;;;;;2613505;54;20130;-69
2023/07/06 07:55:27;;;;;;;12.67;9.20;;;20.30;99.90;;;;;;2612906;54;20551;-69
2023/07/06 08:01:18;;;;;;;12.13;10.00;;;20.10;99.90;;;;;;2611422;39;20499;-69
2023/07/06 08:07:05;;;;;;;10.73;9.67;;;20.00;99.90;;;;;;2610401;54;20423;-70
2023/07/06 08:12:54;;;;;;;11.83;10.70;;;21.20;99.90;;;;;;2610565;54;20486;-69
2023/07/06 08:18:43;;;;;;;12.47;11.33;;;21.30;99.90;;;;;;2609285;54;20427;-68
2023/07/06 08:24:31;;;;;;;10.53;9.93;;;20.20;99.90;;;;;;2609656;54;20419;-70
2023/07/06 08:30:20;;;;;;;13.33;10.00;;;20.20;99.90;;;;;;2610179;54;21533;-69
2023/07/06 08:33:35;;;;;;;10.70;9.87;;;20.90;99.90;;;;;;2609303;47;20515;-70
2023/07/06 08:36:06;;;;;;;10.97;10.20;;;21.20;99.90;;;;;;2610020;54;20420;-72
2023/07/06 08:41:56;;;;;;;12.13;10.93;;;20.50;99.90;;;;;;2606820;54;20358;-69
2023/07/06 08:47:46;;;;;;;10.90;10.20;;;20.60;99.90;;;;;;2610326;54;20436;-69
2023/07/06 08:53:34;;;;;;;13.20;12.30;;;21.60;99.90;;;;;;2613085;54;20423;-69
2023/07/06 09:05:56;;;;;;;11.90;11.10;;;21.90;99.90;;;;;;2607995;54;20394;-68
2023/07/06 09:11:47;;;;;;;11.83;11.10;;;21.80;99.90;;;;;;2607009;54;20142;-68
2023/07/06 09:24:09;;;;;;;11.90;11.20;;;21.90;96.90;;;;;;2610115;54;20416;-69
2023/07/06 09:33:31;;;;;;;12.20;11.40;;;20.20;98.20;;;;;;2607965;54;20422;-69
2023/07/06 09:35:57;;;;;;;10.63;9.93;;;21.90;99.10;;;;;;2606283;54;20431;-70
2023/07/06 09:41:46;;;;;;;12.00;11.30;;;20.70;97.50;;;;;;2609218;54;20359;-69
2023/07/06 09:47:34;;;;;;;13.33;12.63;;;21.70;93.20;;;;;;2610080;54;20444;-69
2023/07/06 09:53:30;;;;;;;13.53;12.73;;;23.00;80.80;;;;;;2609593;54;20432;-69
2023/07/06 09:59:18;;;;;;;12.97;12.27;;;21.40;77.20;;;;;;2607323;54;21055;-70
2023/07/06 10:12:06;;;;;;;13.60;12.30;;;22.50;71.90;;;;;;2611042;54;20387;-69
2023/07/06 10:30:56;;;;;;;14.00;12.93;;;21.20;87.20;;;;;;2612729;54;20425;-72
2023/07/06 10:33:38;;;;;;;12.60;11.80;;;22.70;85.00;;;;;;2613181;31;20833;-71
2023/07/06 10:36:08;;;;;;;13.90;12.70;;;22.40;73.90;;;;;;2611859;54;20404;-71
2023/07/06 10:42:03;;;;;;;13.00;12.20;;;22.90;65.40;;;;;;2611790;54;20395;-73
2023/07/06 10:47:50;;;;;;;12.93;12.13;;;23.10;59.80;;;;;;2608175;54;20388;-73
2023/07/06 10:53:42;;;;;;;12.70;12.20;;;24.20;52.60;;;;;;2610670;54;20130;-72
2023/07/06 10:59:41;;;;;;;14.37;12.90;;;24.10;46.60;;;;;;2611855;54;20400;-73
2023/07/06 11:05:33;;;;;;;13.70;13.00;;;23.30;47.60;;;;;;2613240;54;20425;-72
2023/07/06 11:11:21;;;;;;;11.90;11.40;;;23.80;40.40;;;;;;2613755;54;21175;-72
2023/07/06 11:29:48;;;;;;;13.90;13.00;;;24.80;32.90;;;;;;2614788;39;20820;-72
2023/07/06 11:55:18;;;;;;;14.33;13.33;;;23.50;32.20;;;;;;2611792;54;20966;-72
2023/07/06 12:01:20;;;;;;;12.87;12.07;;;23.10;30.20;;;;;;2613150;54;20407;-72
2023/07/06 12:04:35;;;;;;;13.97;12.73;;;21.90;33.50;;;;;;2613223;47;20462;-72
2023/07/06 12:07:09;;;;;;;13.53;12.60;;;22.70;36.60;;;;;;2612268;54;20535;-73
2023/07/06 12:12:56;;;;;;;12.07;11.37;;;23.60;34.20;;;;;;2612625;39;20859;-73
2023/07/06 12:18:45;;;;;;;12.17;11.30;;;22.60;36.10;;;;;;2611792;54;20598;-73
2023/07/06 12:28:01;;;;;;;13.50;12.70;;;22.40;35.90;;;;;;2611268;54;20498;-73
2023/07/06 12:38:03;;;;;;;12.90;12.07;;;24.00;29.10;;;;;;2612170;54;20376;-72
2023/07/06 12:43:51;;;;;;;13.67;12.80;;;23.00;27.40;;;;;;2610166;54;20427;-71
2023/07/06 12:49:49;;;;;;;13.17;12.37;;;25.40;21.10;;;;;;2612198;54;20503;-72
2023/07/06 12:55:41;;;;;;;13.13;12.30;;;25.00;22.30;;;;;;2612406;54;20407;-73
2023/07/06 13:01:45;;;;;;;13.00;12.40;;;25.00;15.40;;;;;;2612350;39;20898;-72
2023/07/06 13:07:33;;;;;;;13.33;12.73;;;23.90;17.20;;;;;;2613662;54;20399;-72
2023/07/06 13:13:21;;;;;;;15.30;14.50;;;22.60;21.10;;;;;;2609744;54;20200;-72
2023/07/06 13:19:10;;;;;;;12.37;11.70;;;23.30;23.80;;;;;;2612900;54;20170;-72
2023/07/06 13:22:21;;;;;;;12.77;12.17;;;22.60;23.70;;;;;;2611135;54;20551;-73
2023/07/06 13:24:47;;;;;;;13.33;12.10;;;23.00;24.30;;;;;;2611888;46;20466;-72
2023/07/06 13:30:36;;;;;;;12.97;12.10;;;22.60;22.60;;;;;;2612288;54;20399;-72
2023/07/06 13:33:35;;;;;;;13.23;12.53;;;24.40;21.80;;;;;;2613225;54;21970;-70
2023/07/06 13:36:02;;;;;;;13.20;12.30;;;25.30;18.70;;;;;;2612496;54;20412;-72
2023/07/06 13:41:50;;;;;;;11.70;10.93;;;25.90;13.10;;;;;;2611806;54;20524;-72
2023/07/06 13:47:38;;;;;;;13.10;12.50;;;23.60;10.60;;;;;;2611378;54;20443;-72
2023/07/06 13:53:26;;;;;;;12.83;12.03;;;24.60;13.50;;;;;;2613330;54;20139;-72
2023/07/06 13:59:14;;;;;;;12.37;11.77;;;24.60;9.50;;;;;;2611707;54;20126;-72
2023/07/06 14:05:01;;;;;;;12.30;11.40;;;23.80;12.00;;;;;;2614529;54;20231;-71
2023/07/06 14:10:49;;;;;;;11.80;11.30;;;24.00;9.10;;;;;;2609261;46;20664;-72
2023/07/06 14:16:37;;;;;;;13.53;12.93;;;24.30;10.60;;;;;;2610693;54;20158;-73
2023/07/06 14:22:24;;;;;;;14.20;13.40;;;26.10;9.20;;;;;;2611847;54;20143;-73
2023/07/06 14:28:18;;;;;;;12.30;11.77;;;25.80;9.30;;;;;;2609759;54;20179;-72
2023/07/06 14:38:03;;;;;;;12.90;12.37;;;25.30;7.00;;;;;;2607775;54;20493;-72
2023/07/06 14:43:51;;;;;;;12.97;12.27;;;24.80;5.30;;;;;;2610610;31;20969;-72
2023/07/06 14:49:39;;;;;;;14.03;13.33;;;24.60;6.10;;;;;;2610159;54;20138;-72
2023/07/06 14:55:28;;;;;;;12.27;11.67;;;25.40;5.10;;;;;;2613868;54;20435;-72
2023/07/06 15:01:16;;;;;;;12.57;12.07;;;24.70;3.90;;;;;;2613265;54;20387;-72
2023/07/06 15:03:53;;;;;;;14.17;13.27;;;24.10;4.30;;;;;;2606254;54;20425;-72
2023/07/06 15:06:19;;;;;;;13.80;13.10;;;24.10;5.00;;;;;;2607690;54;20155;-73
2023/07/06 15:12:07;;;;;;;12.67;12.03;;;25.10;1.40;;;;;;2610728;54;20427;-72
2023/07/06 15:17:55;;;;;;;12.73;12.03;;;25.30;1.90;;;;;;2611996;54;20138;-72
2023/07/06 15:23:43;;;;;;;13.97;13.20;;;25.10;2.60;;;;;;2613963;39;20735;-72
2023/07/06 15:29:30;;;;;;;12.53;12.00;;;25.10;4.00;;;;;;2612923;54;20170;-72
2023/07/06 15:38:40;;;;;;;13.60;12.90;;;24.20;6.80;;;;;;2612311;46;20438;-72
2023/07/06 15:44:29;;;;;;;13.30;12.70;;;24.50;6.20;;;;;;2612505;54;20154;-73
2023/07/06 15:50:17;;;;;;;13.30;12.60;;;24.30;8.80;;;;;;2610995;54;20400;-73
2023/07/06 15:56:05;;;;;;;13.50;12.80;;;24.50;5.30;;;;;;2612180;39;20632;-72
2023/07/06 16:01:52;;;;;;;14.03;13.23;;;24.50;5.90;;;;;;2611918;54;20138;-72
2023/07/06 16:07:40;;;;;;;13.33;12.53;;;25.10;3.00;;;;;;2613689;54;20158;-73
2023/07/06 16:13:27;;;;;;;14.20;13.40;;;23.70;5.40;;;;;;2611967;39;20248;-72
2023/07/06 16:19:15;;;;;;;14.07;13.27;;;24.10;7.20;;;;;;2613923;54;20265;-72
2023/07/06 16:25:03;;;;;;;13.97;13.17;;;23.10;7.80;;;;;;2613191;54;20150;-72
2023/07/06 16:30:51;;;;;;;13.77;13.07;;;25.20;7.40;;;;;;2612876;54;20137;-73
2023/07/06 16:34:03;;;;;;;13.97;13.17;;;25.70;5.00;;;;;;2611485;54;20542;-72
2023/07/06 16:36:31;;;;;;;14.43;13.83;;;25.70;4.10;;;;;;2611482;54;20151;-72
2023/07/06 16:42:18;;;;;;;13.97;13.37;;;24.40;3.70;;;;;;2612011;54;20371;-72
2023/07/06 16:48:06;;;;;;;13.83;13.23;;;25.40;4.00;;;;;;2611587;54;20140;-72
2023/07/06 16:53:54;;;;;;;13.50;12.70;;;25.10;4.80;;;;;;2612911;54;20130;-73
2023/07/06 16:59:41;;;;;;;12.20;11.67;;;24.70;2.60;;;;;;2612446;54;20226;-73
2023/07/06 17:05:29;;;;;;;13.23;12.53;;;24.90;1.00;;;;;;2613593;54;20287;-73
2023/07/06 17:11:17;;;;;;;12.80;12.27;;;24.50;1.20;;;;;;2613319;54;20138;-72
2023/07/06 17:17:05;;;;;;;12.80;12.30;;;24.70;2.80;;;;;;2614153;39;20735;-73
2023/07/06 17:22:53;;;;;;;14.07;13.47;;;24.80;2.90;;;;;;2613755;54;20537;-73
2023/07/06 17:28:41;;;;;;;13.77;12.80;;;24.80;2.20;;;;;;2612221;54;20657;-73
2023/07/06 17:44:44;;;;;;;12.80;12.30;;;23.70;6.30;;;;;;2608635;54;20453;-73
2023/07/06 17:50:30;;;;;;;14.37;13.67;;;23.00;8.50;;;;;;2608760;54;20492;-72
2023/07/06 17:56:18;;;;;;;14.13;13.53;;;23.00;6.70;;;;;;2609128;39;20603;-72
2023/07/06 18:02:05;;;;;;;14.17;13.40;;;22.80;7.70;;;;;;2608928;54;20134;-73
2023/07/06 18:07:53;;;;;;;13.40;12.90;;;22.50;8.00;;;;;;2608001;54;20391;-72
2023/07/06 18:13:40;;;;;;;13.90;13.30;;;22.40;8.30;;;;;;2608824;54;20134;-72
2023/07/06 18:19:28;;;;;;;14.40;13.80;;;22.10;10.90;;;;;;2609322;54;20168;-72
2023/07/06 18:25:17;;;;;;;13.53;12.93;;;21.90;13.10;;;;;;2610148;54;20427;-72
2023/07/06 18:28:22;;;;;;;14.90;14.20;;;21.80;15.00;;;;;;2611048;39;20811;-72
2023/07/06 18:30:47;;;;;;;14.10;13.20;;;21.70;15.20;;;;;;2610338;54;20429;-72
2023/07/06 18:34:05;;;;;;;13.13;12.43;;;21.50;16.30;;;;;;2611366;54;20977;-72
2023/07/06 18:36:31;;;;;;;13.70;13.00;;;21.40;17.60;;;;;;2613890;54;20159;-72
2023/07/06 18:42:18;;;;;;;14.30;13.43;;;21.30;16.70;;;;;;2611875;54;20142;-72
2023/07/06 18:48:06;;;;;;;14.50;13.90;;;21.00;18.10;;;;;;2609716;54;20216;-73
2023/07/06 18:53:54;;;;;;;13.87;13.23;;;20.90;19.70;;;;;;2610535;54;20411;-73
2023/07/06 18:59:42;;;;;;;14.80;14.00;;;20.60;20.80;;;;;;2610361;54;20138;-72
2023/07/06 19:05:35;;;;;;;14.80;13.80;;;20.10;26.50;;;;;;2610932;54;20395;-72
2023/07/06 19:11:23;;;;;;;14.67;14.00;;;19.70;31.90;;;;;;2610761;54;20458;-72
2023/07/06 19:17:13;;;;;;;14.20;13.33;;;19.40;50.20;;;;;;2610663;54;20899;-71
2023/07/06 19:23:01;;;;;;;13.97;13.30;;;19.00;66.60;;;;;;2610759;54;20394;-72
2023/07/06 19:28:48;;;;;;;15.40;14.57;;;18.80;81.30;;;;;;2612118;54;20656;-73
2023/07/06 19:38:38;;;;;;;14.37;13.70;;;18.30;99.90;;;;;;2612741;54;20391;-73
2023/07/06 19:44:25;;;;;;;13.97;13.27;;;18.20;99.90;;;;;;2614630;39;21630;-72
2023/07/06 19:50:13;;;;;;;13.60;12.80;;;17.90;99.90;;;;;;2613422;54;20139;-72
2023/07/06 19:56:01;;;;;;;12.70;12.10;;;17.60;99.90;;;;;;2614058;54;20162;-73
2023/07/06 20:01:49;;;;;;;13.60;12.90;;;17.20;99.90;;;;;;2612500;54;20404;-72
2023/07/06 20:07:37;;;;;;;13.57;12.97;;;17.10;99.90;;;;;;2612651;54;20146;-72
2023/07/06 20:13:27;;;;;;;12.37;11.77;;;16.90;99.90;;;;;;2614070;54;20166;-72
2023/07/06 20:19:15;;;;;;;13.03;12.33;;;16.70;99.90;;;;;;2613932;39;20739;-73
2023/07/06 20:25:04;;;;;;;13.70;12.90;;;16.60;99.90;;;;;;2613408;54;20138;-73
2023/07/06 20:30:51;;;;;;;12.83;11.73;;;16.30;99.90;;;;;;2611825;54;20363;-71
2023/07/06 20:34:06;;;;;;;11.27;10.47;;;16.20;99.90;;;;;;2607887;47;20415;-72
2023/07/06 20:36:31;;;;;;;11.83;11.13;;;16.20;99.90;;;;;;2609802;52;20158;-75
2023/07/06 20:42:19;;;;;;;11.90;11.30;;;16.20;99.90;;;;;;2613291;54;20246;-76
2023/07/06 20:48:07;;;;;;;12.00;11.13;;;16.00;99.90;;;;;;2612457;54;20682;-75
2023/07/06 20:53:55;;;;;;;10.63;10.10;;;15.90;99.90;;;;;;2613421;54;20118;-75
2023/07/06 20:59:42;;;;;;;11.03;10.43;;;15.90;99.90;;;;;;2612727;54;20126;-75
2023/07/06 21:05:30;;;;;;;11.40;10.63;;;15.60;99.90;;;;;;2614091;54;20227;-75
2023/07/06 21:11:18;;;;;;;10.43;9.73;;;15.50;99.90;;;;;;2613264;54;20972;-75
2023/07/06 21:17:07;;;;;;;10.80;10.10;;;15.60;99.90;;;;;;2614637;39;20733;-75
2023/07/06 21:22:54;;;;;;;9.90;9.30;;;15.40;99.90;;;;;;2613766;54;20386;-75
2023/07/06 21:28:42;;;;;;;10.13;9.17;;;15.10;99.90;;;;;;2614401;39;20544;-75
2023/07/06 21:38:39;;;;;;;8.70;8.00;;;15.20;99.90;;;;;;2612355;54;20355;-75
2023/07/06 21:44:26;;;;;;;9.60;8.90;;;14.90;99.90;;;;;;2615064;54;20534;-75
2023/07/06 21:50:14;;;;;;;9.97;9.27;;;14.80;99.90;;;;;;2613249;54;20158;-75
2023/07/06 21:56:02;;;;;;;9.93;9.13;;;14.60;99.90;;;;;;2613311;54;20155;-75
2023/07/06 22:01:51;;;;;;;9.30;8.40;;;14.50;99.90;;;;;;2613855;54;20391;-75
2023/07/06 22:07:38;;;;;;;10.43;9.73;;;14.30;99.90;;;;;;2612202;54;20939;-75
2023/07/06 22:13:26;;;;;;;10.27;9.37;;;14.20;99.90;;;;;;2614440;39;20541;-75
2023/07/06 22:19:14;;;;;;;10.37;9.47;;;14.20;99.90;;;;;;2613447;54;20134;-75
2023/07/06 22:25:03;;;;;;;10.50;9.57;;;14.50;99.90;;;;;;2613097;54;20134;-75
2023/07/06 22:30:53;;;;;;;10.43;9.83;;;14.40;99.90;;;;;;2614700;54;20540;-74
2023/07/06 22:36:50;;;;;;;9.80;9.10;;;14.00;99.90;;;;;;2612410;54;20407;-74
2023/07/06 22:39:49;;;;;;;9.70;9.20;;;14.00;99.90;;;;;;2611599;54;20928;-75
2023/07/06 22:45:36;;;;;;;10.97;10.17;;;14.20;99.90;;;;;;2613066;54;20432;-74
2023/07/06 22:51:23;;;;;;;9.90;9.20;;;14.10;99.90;;;;;;2611871;46;20175;-76
2023/07/06 22:57:10;;;;;;;9.70;8.60;;;13.80;99.90;;;;;;2612834;54;20119;-75
2023/07/06 23:02:58;;;;;;;8.37;7.77;;;13.80;99.90;;;;;;2611263;54;20153;-74
2023/07/06 23:08:45;;;;;;;9.83;9.00;;;13.70;99.90;;;;;;2613524;39;20501;-74
2023/07/06 23:14:32;;;;;;;8.60;8.03;;;13.70;99.90;;;;;;2613460;54;20134;-75
2023/07/06 23:20:21;;;;;;;9.50;8.70;;;13.70;99.90;;;;;;2614268;54;20118;-75
2023/07/06 23:26:20;;;;;;;18.20;9.40;;;13.50;99.90;;;;;;2613449;54;20391;-74
2023/07/06 23:32:08;;;;;;;8.50;7.77;;;13.30;99.90;;;;;;2614359;39;20738;-75
2023/07/06 23:37:56;;;;;;;9.03;8.33;;;13.30;99.90;;;;;;2611345;54;20382;-75
2023/07/06 23:43:44;;;;;;;8.83;8.23;;;13.20;99.90;;;;;;2613019;31;20810;-74
2023/07/06 23:49:31;;;;;;;9.03;8.43;;;13.10;99.90;;;;;;2613464;54;20177;-74
2023/07/06 23:55:20;;;;;;;9.93;8.93;;;13.10;99.90;;;;;;2614105;54;20247;-74
